createdAt,value
2019-02-18T00:01:40.738Z,2.80
2019-02-18T00:06:47.752Z,2.60
2019-02-18T00:11:52.447Z,2.20
2019-02-18T00:16:57.596Z,2.40
2019-02-18T00:22:02.845Z,3.47
2019-02-18T00:27:08.465Z,2.90
2019-02-18T00:32:15.063Z,2.07
2019-02-18T00:37:24.519Z,2.37
2019-02-18T00:42:27.068Z,2.83
2019-02-18T00:47:31.740Z,3.50
2019-02-18T00:52:36.416Z,2.90
2019-02-18T00:57:41.605Z,2.70
2019-02-18T01:02:47.964Z,3.93
2019-02-18T01:07:52.796Z,3.90
2019-02-18T01:12:57.543Z,1.93
2019-02-18T01:18:02.862Z,2.20
2019-02-18T01:23:07.540Z,3.77
2019-02-18T01:28:12.458Z,3.10
2019-02-18T01:33:20.985Z,2.30
2019-02-18T01:38:26.909Z,3.37
2019-02-18T01:43:31.688Z,3.23
2019-02-18T01:48:37.343Z,3.27
2019-02-18T01:53:43.949Z,2.87
2019-02-18T01:58:48.648Z,3.70
2019-02-18T02:03:54.427Z,3.60
2019-02-18T02:08:59.464Z,3.23
2019-02-18T02:14:05.840Z,2.97
2019-02-18T02:19:10.524Z,3.20
2019-02-18T02:24:17.014Z,2.87
2019-02-18T02:29:21.771Z,4.97
2019-02-18T02:34:27.608Z,3.00
2019-02-18T02:39:33.796Z,2.70
2019-02-18T02:44:38.501Z,4.53
2019-02-18T02:49:43.411Z,3.03
2019-02-18T02:54:48.313Z,3.83
2019-02-18T02:59:54.412Z,2.70
2019-02-18T03:05:00.518Z,3.87
2019-02-18T03:10:06.432Z,2.67
2019-02-18T03:15:11.259Z,3.10
2019-02-18T03:20:15.941Z,4.90
2019-02-18T03:25:23.227Z,4.77
2019-02-18T03:31:03.007Z,3.50
2019-02-18T03:36:08.120Z,4.70
2019-02-18T03:41:12.796Z,4.73
2019-02-18T03:46:19.675Z,3.57
2019-02-18T03:51:24.661Z,3.27
2019-02-18T03:56:30.057Z,2.67
2019-02-18T04:01:34.916Z,2.50
2019-02-18T04:06:39.573Z,2.67
2019-02-18T04:11:44.538Z,2.60
2019-02-18T04:16:49.540Z,2.13
2019-02-18T04:21:55.247Z,3.27
2019-02-18T04:27:01.449Z,2.47
2019-02-18T04:32:06.652Z,3.53
2019-02-18T04:37:11.478Z,3.27
2019-02-18T04:42:16.330Z,2.53
2019-02-18T04:47:20.990Z,2.80
2019-02-18T04:52:26.883Z,6.40
2019-02-18T04:57:31.762Z,3.40
2019-02-18T05:02:36.989Z,3.63
2019-02-18T05:07:42.926Z,2.73
2019-02-18T05:12:49.463Z,2.57
2019-02-18T05:17:54.746Z,2.97
2019-02-18T05:23:00.693Z,3.77
2019-02-18T05:28:05.591Z,2.73
2019-02-18T05:33:10.260Z,3.83
2019-02-18T05:38:14.932Z,3.00
2019-02-18T05:43:19.905Z,2.73
2019-02-18T05:48:25.593Z,3.83
2019-02-18T05:53:31.735Z,2.90
2019-02-18T05:58:37.955Z,3.30
2019-02-18T06:03:46.191Z,4.07
2019-02-18T06:08:50.862Z,3.10
2019-02-18T06:13:55.534Z,5.93
2019-02-18T06:19:00.800Z,3.43
2019-02-18T06:24:05.451Z,2.67
2019-02-18T06:29:14.931Z,2.60
2019-02-18T06:34:16.681Z,2.53
2019-02-18T06:39:22.627Z,3.30
2019-02-18T06:44:37.497Z,7.07
2019-02-18T06:49:44.486Z,3.77
2019-02-18T06:54:54.541Z,5.17
2019-02-18T07:00:02.314Z,5.60
2019-02-18T07:05:30.015Z,3.63
2019-02-18T07:10:39.388Z,3.53
2019-02-18T07:15:44.409Z,3.00
2019-02-18T07:20:50.454Z,4.23
2019-02-18T07:25:56.481Z,3.53
2019-02-18T07:31:01.492Z,2.83
2019-02-18T07:36:06.168Z,4.17
2019-02-18T07:41:11.808Z,4.17
2019-02-18T07:46:17.784Z,3.63
2019-02-18T07:51:22.450Z,3.90
2019-02-18T07:56:27.110Z,4.23
2019-02-18T08:01:31.768Z,4.07
2019-02-18T08:06:45.661Z,4.83
2019-02-18T08:11:50.854Z,4.03
2019-02-18T08:16:58.517Z,6.47
2019-02-18T08:22:04.647Z,6.63
2019-02-18T08:27:09.632Z,5.40
2019-02-18T08:32:16.364Z,5.33
2019-02-18T08:37:21.031Z,6.30
2019-02-18T08:42:25.964Z,6.43
2019-02-18T08:47:30.714Z,5.40
2019-02-18T08:52:36.090Z,6.57
2019-02-18T08:57:40.864Z,4.30
2019-02-18T09:02:47.184Z,5.40
2019-02-18T09:07:53.478Z,6.23
2019-02-18T09:12:59.779Z,5.47
2019-02-18T09:18:04.530Z,6.53
2019-02-18T09:23:28.620Z,6.27
2019-02-18T09:28:34.988Z,5.97
2019-02-18T09:33:41.498Z,5.67
2019-02-18T09:38:48.309Z,5.73
2019-02-18T09:43:54.468Z,9.20
2019-02-18T09:48:59.172Z,8.47
2019-02-18T09:54:03.889Z,8.23
2019-02-18T09:59:10.542Z,7.53
2019-02-18T10:04:16.777Z,9.77
2019-02-18T10:09:21.460Z,8.90
2019-02-18T10:14:26.151Z,8.90
2019-02-18T10:19:31.149Z,8.73
2019-02-18T10:24:35.877Z,9.93
2019-02-18T10:29:40.790Z,10.30
2019-02-18T10:34:46.140Z,9.10
2019-02-18T10:39:50.904Z,9.17
2019-02-18T10:44:55.829Z,9.17
2019-02-18T10:50:02.206Z,7.93
2019-02-18T10:55:07.893Z,8.30
2019-02-18T11:00:14.752Z,7.90
2019-02-18T11:05:20.821Z,8.03
2019-02-18T11:10:25.688Z,11.63
2019-02-18T11:15:30.706Z,8.50
2019-02-18T11:20:35.760Z,7.83
2019-02-18T11:25:40.679Z,8.47
2019-02-18T11:30:45.598Z,9.57
2019-02-18T11:35:52.217Z,9.10
2019-02-18T11:40:57.248Z,8.43
2019-02-18T11:46:02.075Z,8.53
2019-02-18T11:51:07.023Z,11.70
2019-02-18T11:56:11.784Z,8.60
2019-02-18T12:01:16.866Z,8.37
2019-02-18T12:06:22.814Z,9.47
2019-02-18T12:11:37.905Z,8.33
2019-02-18T12:16:35.717Z,10.97
2019-02-18T12:21:41.809Z,9.70
2019-02-18T12:26:48.989Z,8.50
2019-02-18T12:31:54.026Z,10.10
2019-02-18T12:36:58.868Z,10.03
2019-02-18T12:42:03.700Z,9.27
2019-02-18T12:47:08.808Z,11.47
2019-02-18T12:52:13.926Z,10.17
2019-02-18T12:57:19.248Z,9.73
2019-02-18T13:14:21.184Z,7.33
2019-02-18T15:20:52.724Z,5.27
2019-02-18T15:25:58.871Z,5.60
2019-02-18T15:31:04.136Z,4.60
2019-02-18T15:36:09.188Z,5.80
2019-02-18T15:41:14.156Z,4.57
2019-02-18T15:46:18.984Z,5.03
2019-02-18T15:51:23.971Z,3.33
2019-02-18T15:56:30.704Z,8.70
2019-02-18T16:01:35.962Z,5.70
2019-02-18T16:06:41.658Z,4.73
2019-02-18T16:11:47.732Z,3.70
2019-02-18T16:16:54.374Z,4.67
2019-02-18T16:21:59.097Z,8.93
2019-02-18T16:27:03.907Z,7.80
2019-02-18T16:32:08.599Z,3.40
2019-02-18T16:37:13.816Z,3.70
2019-02-18T16:42:21.047Z,3.27
2019-02-18T16:47:27.089Z,4.80
2019-02-18T16:52:33.452Z,6.10
2019-02-18T16:57:39.663Z,5.60
2019-02-18T17:02:46.867Z,6.57
2019-02-18T17:07:51.591Z,4.73
2019-02-18T17:12:56.329Z,5.40
2019-02-18T17:18:07.324Z,4.77
2019-02-18T17:23:09.042Z,4.20
2019-02-18T17:28:13.827Z,5.27
2019-02-18T17:33:19.089Z,3.90
2019-02-18T17:38:27.280Z,4.87
2019-02-18T17:43:32.079Z,5.13
2019-02-18T17:48:36.765Z,6.20
2019-02-18T17:53:43.061Z,7.00
2019-02-18T17:58:47.744Z,5.00
2019-02-18T18:03:54.034Z,4.97
2019-02-18T18:08:58.930Z,5.17
2019-02-18T18:14:05.325Z,6.47
2019-02-18T18:19:10.936Z,7.00
2019-02-18T18:24:15.609Z,6.70
2019-02-18T18:29:20.319Z,7.87
2019-02-18T18:34:25.252Z,10.87
2019-02-18T18:39:30.009Z,8.83
2019-02-18T18:44:34.993Z,7.60
2019-02-18T18:49:40.083Z,6.10
2019-02-18T18:54:44.770Z,4.50
2019-02-18T18:59:49.459Z,5.33
2019-02-18T19:04:54.395Z,4.43
2019-02-18T19:10:00.359Z,4.50
2019-02-18T19:15:06.892Z,4.10
2019-02-18T19:20:13.356Z,6.47
2019-02-18T19:25:18.327Z,5.87
2019-02-18T19:30:26.443Z,5.33
2019-02-18T19:35:31.204Z,4.53
2019-02-18T19:40:36.409Z,4.60
2019-02-18T19:45:45.044Z,5.37
2019-02-18T19:50:49.756Z,5.20
2019-02-18T19:55:56.144Z,4.10
2019-02-18T20:01:06.662Z,4.90
2019-02-18T20:06:12.696Z,4.87
2019-02-18T20:11:17.877Z,7.80
2019-02-18T20:16:25.416Z,5.83
2019-02-18T20:21:30.443Z,5.30
2019-02-18T20:26:35.454Z,6.77
2019-02-18T20:31:41.385Z,6.53
2019-02-18T20:36:47.478Z,4.90
2019-02-18T20:41:52.631Z,3.53
2019-02-18T20:46:57.340Z,5.23
2019-02-18T20:52:03.285Z,4.60
2019-02-18T20:57:08.067Z,4.23
2019-02-18T21:02:14.718Z,5.17
2019-02-18T21:07:19.403Z,7.80
2019-02-18T21:12:24.311Z,4.73
2019-02-18T21:17:29.404Z,6.47
2019-02-18T21:22:34.088Z,15.23
2019-02-18T21:27:39.835Z,7.97
2019-02-18T21:32:44.889Z,8.40
2019-02-18T21:37:50.109Z,7.00
2019-02-18T21:42:55.848Z,4.37
2019-02-18T21:48:00.768Z,7.27
2019-02-18T21:53:08.947Z,5.50
2019-02-18T21:58:14.748Z,5.10
2019-02-18T22:03:19.622Z,4.77
2019-02-18T22:08:25.461Z,5.63
2019-02-18T22:13:30.166Z,4.13
2019-02-18T22:18:38.399Z,4.47
2019-02-18T22:23:43.091Z,2.77
2019-02-18T22:28:47.793Z,4.90
2019-02-18T22:33:54.423Z,3.53
2019-02-18T22:38:59.577Z,2.30
2019-02-18T22:44:07.487Z,2.20
2019-02-18T22:49:12.967Z,2.40
2019-02-18T22:54:17.890Z,2.67
2019-02-18T22:59:24.626Z,3.00
2019-02-18T23:04:29.418Z,2.83
2019-02-18T23:09:34.356Z,2.40
2019-02-18T23:14:39.152Z,1.70
2019-02-18T23:19:45.008Z,3.13
2019-02-18T23:24:51.360Z,2.00
2019-02-18T23:29:56.263Z,1.90
2019-02-18T23:35:03.933Z,3.17
2019-02-18T23:40:09.158Z,2.23
2019-02-18T23:45:14.036Z,1.83
2019-02-18T23:50:19.849Z,3.13
2019-02-18T23:55:24.524Z,1.70
